createdAt,value
2019-04-01T00:02:10.595Z,6.30
2019-04-01T00:07:16.066Z,5.75
2019-04-01T00:12:21.405Z,5.90
2019-04-01T00:17:27.151Z,6.40
2019-04-01T00:22:32.368Z,5.73
2019-04-01T00:27:37.997Z,6.25
2019-04-01T00:32:43.394Z,5.95
2019-04-01T00:37:48.717Z,6.13
2019-04-01T00:43:13.214Z,6.20
2019-04-01T00:48:18.515Z,6.03
2019-04-01T00:53:23.791Z,6.13
2019-04-01T00:58:30.641Z,6.10
2019-04-01T01:03:36.185Z,6.17
2019-04-01T01:08:42.524Z,5.92
2019-04-01T01:13:47.775Z,5.90
2019-04-01T01:18:53.300Z,6.45
2019-04-01T01:23:58.579Z,6.42
2019-04-01T01:29:03.899Z,6.23
2019-04-01T01:34:09.552Z,6.22
2019-04-01T01:39:14.894Z,6.45
2019-04-01T01:44:22.194Z,6.60
2019-04-01T01:49:27.552Z,6.50
2019-04-01T01:54:32.871Z,6.37
2019-04-01T01:59:38.369Z,6.37
2019-04-01T02:04:43.942Z,5.90
2019-04-01T02:09:49.505Z,5.75
2019-04-01T02:14:54.769Z,6.03
2019-04-01T02:20:00.403Z,5.90
2019-04-01T02:25:05.912Z,5.33
2019-04-01T02:30:11.217Z,5.53
2019-04-01T02:35:16.431Z,5.95
2019-04-01T02:40:22.464Z,5.57
2019-04-01T02:45:28.462Z,5.62
2019-04-01T02:50:34.260Z,5.47
2019-04-01T02:55:39.619Z,5.70
2019-04-01T03:00:44.874Z,5.58
2019-04-01T03:05:50.675Z,6.03
2019-04-01T03:10:56.013Z,5.77
2019-04-01T03:16:01.293Z,5.75
2019-04-01T03:21:06.846Z,5.95
2019-04-01T03:26:12.306Z,6.10
2019-04-01T03:31:17.626Z,6.20
2019-04-01T03:36:22.962Z,5.78
2019-04-01T03:41:28.248Z,6.15
2019-04-01T03:46:33.599Z,6.33
2019-04-01T03:51:38.876Z,6.03
2019-04-01T03:56:44.837Z,5.95
2019-04-01T04:01:50.105Z,5.53
2019-04-01T04:06:55.839Z,5.72
2019-04-01T04:12:01.090Z,5.83
2019-04-01T04:17:06.460Z,5.60
2019-04-01T04:22:11.891Z,5.87
2019-04-01T04:27:17.562Z,5.42
2019-04-01T04:32:22.904Z,5.25
2019-04-01T04:37:28.635Z,5.30
2019-04-01T04:42:33.919Z,5.47
2019-04-01T04:47:39.352Z,5.37
2019-04-01T04:52:45.004Z,4.90
2019-04-01T04:57:50.374Z,5.35
2019-04-01T05:02:55.689Z,5.40
2019-04-01T05:08:01.037Z,5.35
2019-04-01T05:13:06.363Z,5.35
2019-04-01T05:18:11.841Z,5.73
2019-04-01T05:23:17.479Z,5.80
2019-04-01T05:28:23.596Z,6.03
2019-04-01T05:33:31.466Z,5.72
2019-04-01T05:38:36.815Z,5.65
2019-04-01T05:43:42.229Z,4.90
2019-04-01T05:48:47.608Z,5.08
2019-04-01T05:53:53.242Z,4.90
2019-04-01T05:58:59.185Z,4.90
2019-04-01T06:04:06.019Z,4.60
2019-04-01T06:09:11.406Z,4.75
2019-04-01T06:14:16.831Z,4.45
2019-04-01T06:19:22.400Z,4.37
2019-04-01T06:24:27.687Z,4.60
2019-04-01T06:29:32.950Z,4.10
2019-04-01T06:34:52.061Z,4.67
2019-04-01T06:39:45.597Z,4.47
2019-04-01T06:44:50.965Z,4.10
2019-04-01T06:49:56.292Z,4.33
2019-04-01T06:55:01.536Z,4.60
2019-04-01T07:00:07.520Z,4.50
2019-04-01T07:05:13.103Z,4.00
2019-04-01T07:10:18.704Z,4.20
2019-04-01T07:15:24.095Z,4.43
2019-04-01T07:20:29.794Z,4.30
2019-04-01T07:25:36.081Z,3.85
2019-04-01T07:30:41.979Z,4.10
2019-04-01T07:35:47.724Z,4.20
2019-04-01T07:40:53.171Z,4.22
2019-04-01T07:46:00.134Z,4.20
2019-04-01T07:51:07.339Z,4.50
2019-04-01T07:56:13.766Z,4.30
2019-04-01T08:01:19.118Z,4.42
2019-04-01T08:06:24.633Z,5.00
2019-04-01T08:11:29.884Z,4.72
2019-04-01T08:16:35.300Z,4.72
2019-04-01T08:21:40.720Z,6.10
2019-04-01T08:26:46.483Z,5.75
2019-04-01T08:31:52.162Z,5.30
2019-04-01T08:36:57.505Z,5.40
2019-04-01T08:42:03.474Z,5.92
2019-04-01T08:47:08.838Z,5.90
2019-04-01T08:52:14.807Z,6.03
2019-04-01T08:57:20.224Z,6.10
2019-04-01T09:02:25.631Z,6.87
2019-04-01T09:07:30.941Z,6.83
2019-04-01T09:12:38.180Z,7.60
2019-04-01T09:17:44.045Z,7.17
2019-04-01T09:22:49.462Z,7.70
2019-04-01T09:27:54.752Z,7.05
2019-04-01T09:33:00.289Z,8.97
2019-04-01T09:38:05.559Z,8.83
2019-04-01T09:43:13.905Z,8.00
2019-04-01T09:48:19.002Z,9.38
2019-04-01T09:53:24.593Z,8.80
2019-04-01T09:58:30.387Z,8.73
2019-04-01T10:03:36.066Z,8.83
2019-04-01T10:08:42.833Z,10.73
2019-04-01T10:13:48.227Z,10.68
2019-04-01T10:18:53.496Z,9.65
2019-04-01T10:23:58.877Z,9.80
2019-04-01T10:29:04.180Z,9.63
2019-04-01T10:34:09.521Z,10.10
2019-04-01T10:39:14.912Z,10.25
2019-04-01T10:44:20.340Z,9.60
2019-04-01T10:49:26.242Z,10.90
2019-04-01T10:54:31.584Z,10.55
2019-04-01T10:59:36.966Z,10.78
2019-04-01T11:04:42.486Z,11.37
2019-04-01T11:09:48.496Z,11.57
2019-04-01T11:14:53.855Z,10.80
2019-04-01T11:19:59.582Z,11.60
2019-04-01T11:25:05.322Z,11.78
2019-04-01T11:30:13.715Z,11.88
2019-04-01T11:35:18.594Z,11.97
2019-04-01T11:40:24.051Z,12.45
2019-04-01T11:45:29.629Z,12.53
2019-04-01T11:50:35.346Z,11.95
2019-04-01T11:55:41.546Z,12.47
2019-04-01T12:00:47.007Z,12.30
2019-04-01T12:05:52.659Z,12.28
2019-04-01T12:10:58.087Z,12.13
2019-04-01T12:16:03.470Z,12.90
2019-04-01T12:21:08.729Z,13.15
2019-04-01T12:26:15.701Z,13.80
2019-04-01T12:31:22.012Z,14.53
2019-04-01T12:36:28.400Z,13.63
2019-04-01T12:41:34.647Z,13.88
2019-04-01T12:46:40.499Z,13.65
2019-04-01T12:51:46.225Z,14.75
2019-04-01T12:56:51.577Z,15.00
2019-04-01T13:01:57.139Z,14.17
2019-04-01T13:07:05.146Z,14.03
2019-04-01T13:12:11.176Z,14.40
2019-04-01T13:17:16.624Z,13.70
2019-04-01T13:22:22.391Z,13.33
2019-04-01T13:27:28.203Z,14.18
2019-04-01T13:32:34.881Z,12.82
2019-04-01T13:37:40.300Z,13.55
2019-04-01T13:42:45.556Z,14.65
2019-04-01T13:47:51.767Z,14.63
2019-04-01T13:52:58.088Z,14.10
2019-04-01T13:58:03.544Z,15.00
2019-04-01T14:03:11.243Z,15.27
2019-04-01T14:08:15.881Z,15.15
2019-04-01T14:13:21.154Z,15.07
2019-04-01T14:18:26.655Z,14.73
2019-04-01T14:23:31.908Z,14.25
2019-04-01T14:28:38.199Z,15.70
2019-04-01T14:33:43.569Z,15.73
2019-04-01T14:38:49.035Z,15.20
2019-04-01T14:43:55.279Z,14.90
2019-04-01T14:49:02.716Z,14.93
2019-04-01T14:54:08.216Z,14.53
2019-04-01T14:59:13.644Z,14.90
2019-04-01T15:04:19.020Z,14.85
2019-04-01T15:09:24.270Z,14.43
2019-04-01T15:14:29.584Z,14.50
2019-04-01T15:19:35.009Z,14.83
2019-04-01T15:24:40.754Z,13.87
2019-04-01T15:29:46.368Z,14.75
2019-04-01T15:34:51.633Z,15.50
2019-04-01T15:39:57.118Z,14.35
2019-04-01T15:45:02.586Z,15.98
2019-04-01T15:50:09.894Z,16.17
2019-04-01T15:55:15.444Z,14.10
2019-04-01T16:00:21.468Z,16.15
2019-04-01T16:05:30.321Z,16.03
2019-04-01T16:10:34.057Z,14.47
2019-04-01T16:15:39.437Z,16.93
2019-04-01T16:20:44.901Z,15.97
2019-04-01T16:25:50.278Z,15.40
2019-04-01T16:30:57.021Z,13.83
2019-04-01T16:36:02.499Z,15.85
2019-04-01T16:41:07.790Z,14.10
2019-04-01T16:46:13.103Z,14.60
2019-04-01T16:51:18.726Z,14.80
2019-04-01T16:56:24.272Z,14.35
2019-04-01T17:01:29.920Z,15.25
2019-04-01T17:06:35.276Z,15.80
2019-04-01T17:11:40.612Z,17.40
2019-04-01T17:16:46.038Z,18.33
2019-04-01T17:21:51.505Z,18.02
2019-04-01T17:27:09.786Z,15.90
2019-04-01T17:38:14.259Z,14.45
2019-04-01T17:43:23.015Z,20.30
2019-04-01T17:48:27.341Z,16.65
2019-04-01T17:53:33.085Z,16.00
2019-04-01T17:58:38.815Z,13.97
2019-04-01T18:03:44.154Z,14.25
2019-04-01T18:08:49.798Z,13.83
2019-04-01T18:13:55.637Z,14.05
2019-04-01T18:19:01.403Z,13.23
2019-04-01T18:24:06.811Z,14.30
2019-04-01T18:29:12.566Z,13.43
2019-04-01T18:34:17.922Z,13.35
2019-04-01T18:39:23.283Z,13.50
2019-04-01T18:44:29.341Z,12.82
2019-04-01T18:49:34.729Z,12.75
2019-04-01T18:54:40.129Z,12.07
2019-04-01T18:59:45.593Z,12.30
2019-04-01T19:04:51.112Z,10.65
2019-04-01T19:10:06.102Z,11.27
2019-04-01T19:15:05.141Z,11.38
2019-04-01T19:20:11.424Z,11.10
2019-04-01T19:25:17.502Z,11.30
2019-04-01T19:30:23.116Z,19.17
2019-04-01T19:35:28.486Z,19.37
2019-04-01T19:40:33.849Z,14.60
2019-04-01T19:45:40.191Z,13.05
2019-04-01T19:50:45.768Z,14.18
2019-04-01T19:55:51.391Z,16.70
2019-04-01T20:00:56.728Z,13.22
2019-04-01T20:06:02.377Z,11.57
2019-04-01T20:11:08.142Z,10.30
2019-04-01T20:16:13.967Z,10.38
2019-04-01T20:21:19.500Z,10.00
2019-04-01T20:26:24.765Z,10.20
2019-04-01T20:31:30.166Z,9.20
2019-04-01T20:42:19.859Z,9.40
2019-04-01T20:47:25.677Z,8.93
2019-04-01T20:52:31.044Z,9.53
2019-04-01T20:57:36.880Z,9.38
2019-04-01T21:02:42.194Z,9.93
2019-04-01T21:07:47.947Z,9.37
2019-04-01T21:12:53.961Z,9.67
2019-04-01T21:17:59.282Z,9.55
2019-04-01T21:23:04.603Z,8.78
2019-04-01T21:28:10.235Z,9.50
2019-04-01T21:33:15.935Z,10.25
2019-04-01T21:38:21.680Z,10.35
2019-04-01T21:43:27.409Z,9.83
2019-04-01T21:48:32.826Z,9.13
2019-04-01T21:53:38.178Z,9.90
2019-04-01T21:58:43.639Z,9.70
2019-04-01T22:03:48.981Z,9.50
2019-04-01T22:08:54.350Z,9.75
2019-04-01T22:14:00.004Z,9.53
2019-04-01T22:19:05.279Z,9.50
2019-04-01T22:24:10.706Z,10.00
2019-04-01T22:29:16.430Z,10.17
2019-04-01T22:34:21.783Z,9.67
2019-04-01T22:39:27.596Z,9.83
2019-04-01T22:44:33.621Z,9.75
2019-04-01T22:49:38.967Z,9.48
2019-04-01T22:54:44.241Z,9.63
2019-04-01T22:59:49.582Z,9.55
2019-04-01T23:04:54.836Z,9.33
2019-04-01T23:10:00.460Z,10.53
2019-04-01T23:15:06.934Z,9.63
2019-04-01T23:20:12.626Z,10.08
2019-04-01T23:25:18.316Z,19.00
2019-04-01T23:30:23.754Z,28.98
2019-04-01T23:35:29.264Z,23.90
2019-04-01T23:40:34.664Z,20.50
2019-04-01T23:45:40.050Z,15.50
2019-04-01T23:50:45.356Z,13.80
2019-04-01T23:55:51.432Z,16.23
